»·PEaware :: N650TB NONE-KSBA

N650TB :: NONE-KSBA

FLIGHT INFORMATION

Flight Status: Arrived
Operator: Privately registered:
United States
More flights under this callsign
Pilot: Nick S. (24447)
Aircraft: CESSNA 172 SKYHAWK
(C172)
More flights by this aircraft type
Origin: NONE
Destination: KSBA Santa Barbara Mun
United States
More flights between these airports :: More routes between these airports
Route: +
File this flight plan on PilotEdge
Remarks:
Altitude:
(Current/Filed)
2,000ft
Speed:
(Current/Filed)
0kts
Departed: 28-Jul-20 09:33 PM
Arrived: 28-Jul-20 09:51 PM
Distance/Time
Traveled:
Not Available
Distance/Time
To Go:
Arrived

Flight Plot

Page will automatically refresh every two minutes.


Map Options




Map Legend


Flown Route
Filed Route
Departure Airport
Arrival Airport
Navaid (VOR, NDB)
Fix

Horizontal Profiles

Position Reports

Time Latitude Longitude Heading Altitude Ground
Speed
28-Jul-20 21:03 34.429660 -119.844141 156 13ft 0kts
28-Jul-20 21:04 34.429660 -119.844141 156 13ft 0kts
28-Jul-20 21:05 34.429660 -119.844141 156 13ft 0kts
28-Jul-20 21:06 34.429660 -119.844141 156 13ft 0kts
28-Jul-20 21:07 34.429660 -119.844141 156 13ft 0kts
28-Jul-20 21:08 34.429660 -119.844141 156 13ft 0kts
28-Jul-20 21:09 34.429660 -119.844141 156 13ft 0kts
28-Jul-20 21:10 34.429660 -119.844141 156 13ft 0kts
28-Jul-20 21:11 34.429660 -119.844141 156 13ft 0kts
28-Jul-20 21:12 34.429660 -119.844141 156 13ft 0kts
28-Jul-20 21:13 34.429660 -119.844141 156 13ft 0kts
28-Jul-20 21:14 34.429660 -119.844141 156 13ft 0kts
28-Jul-20 21:15 34.429660 -119.844141 156 13ft 0kts
28-Jul-20 21:16 34.429660 -119.844141 156 13ft 0kts
28-Jul-20 21:17 34.429660 -119.844141 156 13ft 0kts
28-Jul-20 21:17 34.429660 -119.844141 156 13ft 0kts
28-Jul-20 21:19 34.429660 -119.844141 156 13ft 0kts
28-Jul-20 21:20 34.429660 -119.844141 156 13ft 0kts
28-Jul-20 21:20 34.429660 -119.844141 156 13ft 0kts
28-Jul-20 21:22 34.429659 -119.844141 156 13ft 0kts
28-Jul-20 21:23 34.429657 -119.844140 156 13ft 0kts
28-Jul-20 21:23 34.429655 -119.844139 156 13ft 0kts
28-Jul-20 21:25 34.429650 -119.844136 156 13ft 0kts
28-Jul-20 21:25 34.429648 -119.844135 156 13ft 0kts
28-Jul-20 21:26 34.429889 -119.842476 58 13ft 0kts
28-Jul-20 21:28 34.429965 -119.842328 57 13ft 0kts
28-Jul-20 21:28 34.429967 -119.842324 57 13ft 0kts
28-Jul-20 21:29 34.429969 -119.842320 57 13ft 0kts
28-Jul-20 21:30 34.429971 -119.842317 57 13ft 0kts
28-Jul-20 21:31 34.430088 -119.842011 71 13ft 5kts
28-Jul-20 21:32 34.427011 -119.840419 164 13ft 67kts
28-Jul-20 21:33 34.403618 -119.832282 164 716ft 91kts
28-Jul-20 21:34 34.381821 -119.833086 264 1506ft 88kts
28-Jul-20 21:35 34.379081 -119.862771 263 2011ft 92kts
28-Jul-20 21:36 34.375948 -119.895411 263 2002ft 100kts
28-Jul-20 21:37 34.372703 -119.929142 263 2000ft 101kts
28-Jul-20 21:38 34.369463 -119.962816 263 1999ft 100kts
28-Jul-20 21:39 34.366230 -119.996427 263 1999ft 100kts
28-Jul-20 21:40 34.363014 -120.029855 263 2000ft 100kts
28-Jul-20 21:41 34.365714 -120.060417 348 1998ft 98kts
28-Jul-20 21:42 34.393310 -120.064312 355 1999ft 100kts
28-Jul-20 21:43 34.411410 -120.040566 64 2000ft 100kts
28-Jul-20 21:44 34.422357 -120.009729 68 1998ft 98kts
28-Jul-20 21:45 34.427021 -119.977330 91 1997ft 98kts
28-Jul-20 21:46 34.425518 -119.942252 90 1516ft 106kts
28-Jul-20 21:47 34.426208 -119.912173 87 963ft 79kts
28-Jul-20 21:48 34.426842 -119.887706 87 618ft 67kts
28-Jul-20 21:49 34.427123 -119.865119 87 284ft 67kts
28-Jul-20 21:50 34.427686 -119.847358 91 13ft 21kts
28-Jul-20 21:51 34.428247 -119.845735 58 13ft 8kts
28-Jul-20 21:52 34.429644 -119.844127 148 13ft 0kts

Navigation Log

Ident Type
Flight plan parsing failed, navigation log unavailable